createdAt,value
2022-09-07T00:00:56.520Z,4.35
2022-09-07T00:03:23.791Z,4.85
2022-09-07T00:05:51.855Z,3.90
2022-09-07T00:08:21.281Z,4.13
2022-09-07T00:10:59.862Z,4.50
2022-09-07T00:13:29.519Z,4.40
2022-09-07T00:15:56.631Z,4.90
2022-09-07T00:18:23.999Z,4.55
2022-09-07T00:21:05.668Z,4.40
2022-09-07T00:23:33.538Z,4.35
2022-09-07T00:26:09.362Z,4.93
2022-09-07T00:28:37.215Z,4.68
2022-09-07T00:31:05.116Z,5.03
2022-09-07T00:33:31.713Z,4.90
2022-09-07T00:35:59.117Z,4.75
2022-09-07T00:38:26.002Z,4.72
2022-09-07T00:40:53.179Z,4.80
2022-09-07T00:43:35.213Z,4.30
2022-09-07T00:46:04.201Z,4.75
2022-09-07T00:48:40.117Z,4.22
2022-09-07T00:51:11.127Z,4.95
2022-09-07T00:53:41.924Z,4.50
2022-09-07T00:56:09.618Z,4.63
2022-09-07T00:58:39.778Z,3.80
2022-09-07T01:01:07.750Z,4.47
2022-09-07T01:03:40.773Z,4.35
2022-09-07T01:06:11.809Z,5.03
2022-09-07T01:08:38.802Z,4.95
2022-09-07T01:11:06.126Z,4.35
2022-09-07T01:13:32.841Z,4.15
2022-09-07T01:16:37.732Z,4.60
2022-09-07T01:19:04.299Z,3.88
2022-09-07T01:21:53.698Z,4.50
2022-09-07T01:24:49.605Z,5.20
2022-09-07T01:27:31.019Z,4.60
2022-09-07T01:30:12.819Z,4.80
2022-09-07T01:33:01.126Z,4.80
2022-09-07T01:35:48.957Z,4.97
2022-09-07T01:38:36.741Z,5.28
2022-09-07T01:41:11.883Z,5.32
2022-09-07T01:46:39.730Z,5.00
2022-09-07T01:49:18.634Z,4.95
2022-09-07T01:51:50.579Z,4.50
2022-09-07T01:54:25.312Z,5.60
2022-09-07T01:56:56.069Z,5.40
2022-09-07T01:59:42.726Z,6.00
2022-09-07T02:02:14.277Z,5.55
2022-09-07T02:04:48.357Z,5.25
2022-09-07T02:07:20.782Z,5.20
2022-09-07T02:10:24.282Z,6.18
2022-09-07T02:12:53.114Z,5.95
2022-09-07T02:15:29.114Z,5.63
2022-09-07T02:18:04.322Z,5.82
2022-09-07T02:23:08.714Z,5.22
2022-09-07T02:25:44.461Z,5.82
2022-09-07T02:28:19.053Z,6.05
2022-09-07T02:30:45.932Z,5.85
2022-09-07T02:33:12.566Z,6.13
2022-09-07T02:35:39.372Z,5.75
2022-09-07T02:38:07.905Z,6.30
2022-09-07T02:40:35.282Z,5.40
2022-09-07T02:43:06.054Z,6.25
2022-09-07T02:45:58.452Z,6.00
2022-09-07T02:49:03.676Z,5.90
2022-09-07T02:51:46.252Z,5.45
2022-09-07T02:54:51.559Z,5.93
2022-09-07T02:57:54.634Z,5.65
2022-09-07T03:00:26.136Z,5.43
2022-09-07T03:03:15.629Z,5.90
2022-09-07T03:06:02.213Z,5.55
2022-09-07T03:08:31.396Z,5.50
2022-09-07T03:10:58.987Z,5.90
2022-09-07T03:13:28.558Z,5.80
2022-09-07T03:15:56.573Z,5.75
2022-09-07T03:18:24.715Z,5.45
2022-09-07T03:20:51.743Z,5.45
2022-09-07T03:23:18.831Z,5.85
2022-09-07T03:25:47.107Z,5.32
2022-09-07T03:28:13.682Z,5.25
2022-09-07T03:30:44.346Z,5.00
2022-09-07T03:33:11.129Z,5.07
2022-09-07T03:35:37.901Z,5.28
2022-09-07T03:38:04.479Z,5.45
2022-09-07T03:40:31.142Z,6.57
2022-09-07T03:42:57.753Z,6.00
2022-09-07T03:45:24.365Z,5.93
2022-09-07T03:47:51.104Z,6.32
2022-09-07T03:50:17.927Z,7.18
2022-09-07T03:52:44.714Z,7.75
2022-09-07T03:55:11.487Z,6.88
2022-09-07T03:57:39.005Z,7.30
2022-09-07T04:00:06.285Z,6.95
2022-09-07T04:02:38.965Z,7.38
2022-09-07T04:05:05.806Z,7.82
2022-09-07T04:07:32.426Z,7.53
2022-09-07T04:09:59.392Z,7.30
2022-09-07T04:12:26.034Z,6.85
2022-09-07T04:14:52.633Z,8.05
2022-09-07T04:17:19.298Z,6.93
2022-09-07T04:19:45.871Z,7.45
2022-09-07T04:22:12.464Z,7.55
2022-09-07T04:24:39.098Z,8.00
2022-09-07T04:27:05.716Z,8.00
2022-09-07T04:29:32.277Z,7.30
2022-09-07T04:31:58.851Z,6.78
2022-09-07T04:34:25.509Z,8.10
2022-09-07T04:36:53.207Z,6.75
2022-09-07T04:39:19.798Z,8.73
2022-09-07T04:41:46.375Z,7.43
2022-09-07T04:44:16.822Z,8.63
2022-09-07T04:46:43.777Z,8.25
2022-09-07T04:49:11.699Z,8.75
2022-09-07T04:51:39.397Z,8.30
2022-09-07T04:54:06.886Z,7.85
2022-09-07T04:56:34.359Z,8.45
2022-09-07T04:59:02.425Z,9.02
2022-09-07T05:01:29.650Z,9.05
2022-09-07T05:03:58.781Z,8.98
2022-09-07T05:06:25.397Z,8.45
2022-09-07T05:08:53.798Z,9.02
2022-09-07T05:11:26.433Z,8.27
2022-09-07T05:16:27.664Z,10.30
2022-09-07T05:18:59.874Z,10.88
2022-09-07T05:21:29.203Z,9.30
2022-09-07T05:23:57.771Z,8.60
2022-09-07T05:26:26.829Z,9.90
2022-09-07T05:31:40.816Z,7.97
2022-09-07T05:36:54.989Z,9.70
2022-09-07T05:39:21.624Z,9.80
2022-09-07T05:41:48.309Z,9.23
2022-09-07T05:47:01.532Z,9.13
2022-09-07T05:49:28.181Z,10.70
2022-09-07T05:51:54.840Z,11.13
2022-09-07T05:54:21.453Z,10.75
2022-09-07T05:56:48.169Z,10.10
2022-09-07T05:59:14.870Z,10.82
2022-09-07T06:01:41.545Z,10.52
2022-09-07T06:04:08.274Z,10.00
2022-09-07T06:06:38.807Z,10.27
2022-09-07T06:09:06.478Z,10.07
2022-09-07T06:11:33.159Z,10.27
2022-09-07T06:13:59.811Z,9.13
2022-09-07T06:16:26.571Z,8.68
2022-09-07T06:18:53.546Z,9.68
2022-09-07T06:21:22.244Z,8.85
2022-09-07T06:23:50.030Z,8.75
2022-09-07T06:26:18.567Z,7.38
2022-09-07T06:28:49.646Z,7.43
2022-09-07T06:31:22.788Z,6.38
2022-09-07T06:33:50.407Z,5.65
2022-09-07T06:36:19.614Z,6.20
2022-09-07T06:38:46.991Z,5.60
2022-09-07T06:44:02.995Z,5.13
2022-09-07T06:49:16.194Z,5.05
2022-09-07T06:51:42.917Z,4.32
2022-09-07T06:56:56.535Z,4.30
2022-09-07T06:59:23.096Z,4.85
2022-09-07T07:01:49.962Z,5.78
2022-09-07T07:04:16.555Z,5.00
2022-09-07T07:06:43.160Z,5.32
2022-09-07T07:09:13.343Z,5.15
2022-09-07T07:11:39.961Z,5.22
2022-09-07T07:14:06.678Z,5.78
2022-09-07T07:16:33.369Z,5.20
2022-09-07T07:19:00.205Z,5.97
2022-09-07T07:21:28.954Z,6.75
2022-09-07T07:24:05.008Z,6.53
2022-09-07T07:26:34.573Z,6.30
2022-09-07T07:29:04.350Z,6.57
2022-09-07T07:31:33.110Z,5.97
2022-09-07T07:33:59.808Z,6.68
2022-09-07T07:36:28.000Z,5.88
2022-09-07T07:38:59.498Z,6.53
2022-09-07T07:44:18.184Z,7.15
2022-09-07T07:46:48.026Z,6.18
2022-09-07T07:49:14.790Z,6.72
2022-09-07T07:54:28.125Z,6.20
2022-09-07T07:56:54.662Z,6.95
2022-09-07T07:59:21.207Z,7.10
2022-09-07T08:01:47.960Z,7.53
2022-09-07T08:04:14.660Z,7.18
2022-09-07T08:06:44.101Z,7.10
2022-09-07T08:09:13.534Z,6.85
2022-09-07T08:11:40.418Z,6.03
2022-09-07T08:14:08.479Z,6.63
2022-09-07T08:16:36.136Z,7.40
2022-09-07T08:19:03.336Z,6.68
2022-09-07T08:21:30.086Z,6.53
2022-09-07T08:23:57.020Z,6.00
2022-09-07T08:26:23.563Z,5.72
2022-09-07T08:28:50.111Z,5.50
2022-09-07T08:31:17.514Z,6.05
2022-09-07T08:33:44.994Z,5.97
2022-09-07T08:36:16.781Z,5.18
2022-09-07T08:38:43.904Z,6.38
2022-09-07T08:41:32.427Z,6.05
2022-09-07T08:44:04.279Z,4.97
2022-09-07T08:46:56.332Z,4.68
2022-09-07T08:49:42.981Z,4.22
2022-09-07T08:52:16.414Z,4.35
2022-09-07T08:54:46.730Z,3.80
2022-09-07T08:57:22.704Z,3.63
2022-09-07T09:00:05.083Z,3.92
2022-09-07T09:02:36.525Z,3.90
2022-09-07T09:05:17.575Z,4.05
2022-09-07T09:07:57.501Z,4.07
2022-09-07T09:10:45.537Z,4.22
2022-09-07T09:13:19.324Z,4.43
2022-09-07T09:16:02.363Z,4.18
2022-09-07T09:18:49.795Z,3.97
2022-09-07T09:21:18.632Z,3.95
2022-09-07T09:23:48.471Z,3.88
2022-09-07T09:26:22.553Z,3.72
2022-09-07T09:28:49.379Z,3.67
2022-09-07T09:31:26.305Z,3.83
2022-09-07T09:34:05.004Z,3.67
2022-09-07T09:36:34.957Z,3.22
2022-09-07T09:39:21.254Z,3.17
2022-09-07T09:41:48.180Z,3.42
2022-09-07T09:44:17.497Z,3.50
2022-09-07T09:47:29.535Z,3.17
2022-09-07T09:49:40.049Z,3.40
2022-09-07T09:52:41.867Z,3.00
2022-09-07T09:55:30.526Z,2.83
2022-09-07T10:01:22.674Z,2.70
2022-09-07T10:03:59.514Z,2.65
2022-09-07T10:06:29.438Z,2.72
2022-09-07T10:09:01.725Z,3.08
2022-09-07T10:12:06.246Z,2.78
2022-09-07T10:14:35.337Z,2.60
2022-09-07T10:17:17.758Z,2.50
2022-09-07T10:19:44.422Z,2.60
2022-09-07T10:22:30.966Z,2.40
2022-09-07T10:24:58.045Z,2.40
2022-09-07T10:27:34.528Z,2.38
2022-09-07T10:30:05.902Z,2.47
2022-09-07T10:33:16.838Z,2.67
2022-09-07T10:36:09.480Z,2.50
2022-09-07T10:38:44.536Z,2.90
2022-09-07T10:41:11.469Z,2.45
2022-09-07T10:43:47.139Z,2.63
2022-09-07T10:53:18.025Z,2.15
2022-09-07T10:56:05.618Z,2.03
2022-09-07T11:01:42.442Z,2.47
2022-09-07T11:04:17.063Z,2.00
2022-09-07T11:06:48.859Z,2.08
2022-09-07T11:09:31.417Z,2.03
2022-09-07T11:12:13.454Z,2.30
2022-09-07T11:14:48.954Z,2.08
2022-09-07T11:17:22.861Z,1.92
2022-09-07T11:19:55.904Z,1.60
2022-09-07T11:22:33.484Z,1.90
2022-09-07T11:25:31.880Z,1.80
2022-09-07T11:28:20.915Z,1.60
2022-09-07T11:31:00.387Z,1.70
2022-09-07T11:33:39.717Z,1.98
2022-09-07T11:36:12.665Z,1.90
2022-09-07T11:38:44.853Z,1.85
2022-09-07T11:41:30.865Z,1.90
2022-09-07T11:44:13.391Z,2.00
2022-09-07T11:46:53.630Z,2.00
2022-09-07T11:49:21.406Z,2.00
2022-09-07T11:51:56.989Z,1.90
2022-09-07T11:54:53.328Z,1.85
2022-09-07T11:58:08.087Z,2.00
2022-09-07T12:01:15.643Z,1.83
2022-09-07T12:04:15.451Z,1.70
2022-09-07T12:06:45.404Z,1.80
2022-09-07T12:09:35.890Z,1.63
2022-09-07T12:12:43.514Z,1.70
2022-09-07T12:15:28.328Z,1.75
2022-09-07T12:18:19.642Z,1.67
2022-09-07T12:20:48.317Z,1.80
2022-09-07T12:23:28.019Z,1.42
2022-09-07T12:26:29.437Z,1.55
2022-09-07T12:28:55.924Z,1.40
2022-09-07T12:31:59.782Z,1.40
2022-09-07T12:34:32.902Z,1.70
2022-09-07T12:37:12.418Z,1.80
2022-09-07T12:39:43.779Z,1.40
2022-09-07T12:42:33.121Z,1.30
2022-09-07T12:45:28.456Z,1.38
2022-09-07T12:48:17.120Z,1.50
2022-09-07T12:51:06.618Z,2.10
2022-09-07T12:54:01.747Z,2.03
2022-09-07T12:59:57.922Z,1.40
2022-09-07T13:02:59.947Z,1.30
2022-09-07T13:05:52.573Z,1.10
2022-09-07T13:08:44.134Z,1.10
2022-09-07T13:11:32.054Z,1.40
2022-09-07T13:14:04.953Z,1.20
2022-09-07T13:19:46.001Z,1.30
2022-09-07T13:22:30.940Z,1.10
2022-09-07T13:25:00.050Z,1.40
2022-09-07T13:27:39.075Z,1.63
2022-09-07T13:30:40.255Z,1.30
2022-09-07T13:33:25.255Z,1.27
2022-09-07T13:35:54.689Z,1.08
2022-09-07T13:38:22.207Z,1.00
2022-09-07T13:40:52.038Z,1.20
2022-09-07T13:43:21.457Z,1.50
2022-09-07T13:46:03.766Z,1.40
2022-09-07T13:48:41.956Z,1.50
2022-09-07T13:51:24.867Z,1.52
2022-09-07T13:54:35.002Z,1.33
2022-09-07T13:57:21.946Z,1.48
2022-09-07T13:59:50.811Z,1.55
2022-09-07T14:02:28.940Z,1.70
2022-09-07T14:04:58.606Z,1.20
2022-09-07T14:07:27.911Z,1.67
2022-09-07T14:10:20.679Z,1.40
2022-09-07T14:12:50.434Z,1.70
2022-09-07T14:15:47.023Z,1.35
2022-09-07T14:18:29.779Z,1.30
2022-09-07T14:20:57.276Z,1.67
2022-09-07T14:23:27.975Z,1.30
2022-09-07T14:26:17.489Z,1.50
2022-09-07T14:28:45.845Z,1.83
2022-09-07T14:31:14.317Z,1.40
2022-09-07T14:33:52.472Z,1.50
2022-09-07T14:36:43.561Z,1.60
2022-09-07T14:39:11.698Z,1.70
2022-09-07T14:41:40.506Z,1.75
2022-09-07T14:44:25.649Z,1.60
2022-09-07T14:46:56.531Z,1.60
2022-09-07T14:49:24.116Z,1.60
2022-09-07T14:51:52.619Z,3.30
2022-09-07T14:54:28.361Z,1.48
2022-09-07T14:57:05.429Z,1.30
2022-09-07T14:59:39.705Z,1.00
2022-09-07T15:02:17.913Z,1.17
2022-09-07T15:04:49.775Z,1.10
2022-09-07T15:07:46.520Z,1.73
2022-09-07T15:10:28.636Z,1.38
2022-09-07T15:12:58.149Z,1.40
2022-09-07T15:15:33.981Z,1.50
2022-09-07T15:18:08.523Z,1.30
2022-09-07T15:20:41.395Z,1.25
2022-09-07T15:23:13.686Z,1.58
2022-09-07T15:25:46.517Z,1.38
2022-09-07T15:34:12.133Z,1.67
2022-09-07T15:36:43.427Z,1.63
2022-09-07T15:39:27.467Z,1.35
2022-09-07T15:41:54.542Z,1.58
2022-09-07T15:44:25.202Z,1.52
2022-09-07T15:49:47.389Z,1.50
2022-09-07T15:52:16.966Z,1.48
2022-09-07T15:54:43.697Z,1.50
2022-09-07T15:59:57.154Z,1.30
2022-09-07T16:05:10.907Z,1.50
2022-09-07T16:10:25.506Z,1.65
2022-09-07T16:15:45.093Z,1.50
2022-09-07T16:18:16.485Z,1.50
2022-09-07T16:20:43.622Z,1.60
2022-09-07T16:23:15.801Z,1.90
2022-09-07T16:25:53.927Z,1.50
2022-09-07T16:28:20.611Z,1.65
2022-09-07T16:30:48.112Z,1.73
2022-09-07T16:33:15.114Z,1.50
2022-09-07T16:35:41.695Z,1.75
2022-09-07T16:40:54.789Z,2.00
2022-09-07T16:43:21.974Z,1.90
2022-09-07T16:46:04.651Z,1.60
2022-09-07T16:48:33.226Z,1.90
2022-09-07T16:51:02.522Z,1.67
2022-09-07T16:53:31.162Z,1.75
2022-09-07T16:56:06.170Z,2.00
2022-09-07T16:58:36.416Z,1.63
2022-09-07T17:01:07.554Z,1.60
2022-09-07T17:03:35.575Z,1.75
2022-09-07T17:06:04.728Z,1.80
2022-09-07T17:08:33.158Z,2.03
2022-09-07T17:11:08.364Z,1.83
2022-09-07T17:13:36.657Z,1.73
2022-09-07T17:16:04.122Z,1.85
2022-09-07T17:21:19.769Z,1.60
2022-09-07T17:23:54.295Z,1.33
2022-09-07T17:26:22.400Z,1.23
2022-09-07T17:28:50.221Z,1.30
2022-09-07T17:34:12.678Z,1.40
2022-09-07T17:36:39.363Z,1.30
2022-09-07T17:39:14.939Z,1.30
2022-09-07T17:41:43.219Z,1.23
2022-09-07T17:44:09.792Z,1.40
2022-09-07T17:46:36.367Z,1.58
2022-09-07T17:49:03.626Z,1.40
2022-09-07T17:51:32.399Z,1.35
2022-09-07T17:54:09.452Z,1.60
2022-09-07T17:56:36.943Z,1.40
2022-09-07T18:01:50.598Z,2.10
2022-09-07T18:04:17.384Z,2.40
2022-09-07T18:06:43.999Z,2.22
2022-09-07T18:09:11.295Z,2.72
2022-09-07T18:11:46.635Z,2.20
2022-09-07T18:14:14.840Z,2.10
2022-09-07T18:16:43.535Z,1.80
2022-09-07T18:19:11.238Z,3.20
2022-09-07T18:21:38.330Z,3.67
2022-09-07T18:24:07.897Z,2.92
2022-09-07T18:26:38.926Z,2.50
2022-09-07T18:29:13.220Z,2.40
2022-09-07T18:31:45.867Z,2.10
2022-09-07T18:34:12.809Z,1.58
2022-09-07T18:36:43.706Z,1.75
2022-09-07T18:39:10.569Z,1.70
2022-09-07T18:41:40.838Z,2.10
2022-09-07T18:45:26.999Z,1.90
2022-09-07T18:46:54.524Z,2.15
2022-09-07T18:49:21.076Z,2.30
2022-09-07T18:54:34.169Z,2.00
2022-09-07T18:57:00.757Z,1.60
2022-09-07T18:59:27.305Z,2.30
2022-09-07T19:01:54.476Z,1.67
2022-09-07T19:04:22.471Z,1.90
2022-09-07T19:06:49.134Z,2.00
2022-09-07T19:09:15.710Z,1.77
2022-09-07T19:11:43.492Z,2.40
2022-09-07T19:14:10.220Z,3.38
2022-09-07T19:16:37.155Z,3.10
2022-09-07T19:19:06.442Z,4.00
2022-09-07T19:21:38.755Z,2.72
2022-09-07T19:24:13.794Z,2.28
2022-09-07T19:29:14.999Z,2.17
2022-09-07T19:32:04.017Z,2.58
2022-09-07T19:34:43.238Z,2.20
2022-09-07T19:37:12.598Z,1.75
2022-09-07T19:39:39.615Z,2.10
2022-09-07T19:42:06.814Z,2.78
2022-09-07T19:44:33.887Z,2.30
2022-09-07T19:47:00.748Z,2.42
2022-09-07T19:49:28.454Z,2.40
2022-09-07T19:51:55.349Z,2.92
2022-09-07T19:54:21.926Z,2.60
2022-09-07T19:56:48.435Z,2.20
2022-09-07T19:59:15.276Z,1.83
2022-09-07T20:01:45.821Z,2.50
2022-09-07T20:04:19.533Z,2.50
2022-09-07T20:06:47.967Z,2.05
2022-09-07T20:09:14.496Z,2.03
2022-09-07T20:11:46.149Z,1.42
2022-09-07T20:14:13.908Z,1.70
2022-09-07T20:16:41.423Z,1.63
2022-09-07T20:19:08.583Z,1.45
2022-09-07T20:21:36.717Z,1.75
2022-09-07T20:24:04.775Z,1.70
2022-09-07T20:26:32.210Z,1.73
2022-09-07T20:29:16.850Z,2.33
2022-09-07T20:31:46.598Z,2.17
2022-09-07T20:34:13.918Z,1.88
2022-09-07T20:36:40.595Z,1.90
2022-09-07T20:39:07.210Z,2.00
2022-09-07T20:41:34.837Z,1.90
2022-09-07T20:44:03.200Z,2.10
2022-09-07T20:46:30.326Z,2.15
2022-09-07T20:48:57.113Z,1.73
2022-09-07T20:51:24.102Z,1.92
2022-09-07T20:53:50.859Z,1.95
2022-09-07T20:56:19.628Z,2.00
2022-09-07T20:58:47.555Z,1.50
2022-09-07T21:01:17.831Z,1.83
2022-09-07T21:03:53.181Z,1.88
2022-09-07T21:06:21.392Z,2.00
2022-09-07T21:08:49.334Z,2.35
2022-09-07T21:11:22.368Z,1.75
2022-09-07T21:13:55.808Z,2.20
2022-09-07T21:16:22.553Z,2.22
2022-09-07T21:18:54.150Z,2.22
2022-09-07T21:21:21.564Z,1.98
2022-09-07T21:23:48.260Z,2.20
2022-09-07T21:26:15.120Z,1.90
2022-09-07T21:28:41.737Z,2.35
2022-09-07T21:31:09.603Z,2.13
2022-09-07T21:33:37.471Z,2.20
2022-09-07T21:36:12.463Z,2.10
2022-09-07T21:38:41.090Z,2.08
2022-09-07T21:41:13.319Z,2.08
2022-09-07T21:43:40.357Z,1.92
2022-09-07T21:46:08.924Z,2.30
2022-09-07T21:48:35.863Z,2.30
2022-09-07T21:51:03.148Z,1.80
2022-09-07T21:53:30.028Z,2.00
2022-09-07T21:56:01.221Z,2.15
2022-09-07T21:58:28.964Z,2.30
2022-09-07T22:00:56.941Z,2.97
2022-09-07T22:03:25.092Z,2.08
2022-09-07T22:05:52.287Z,2.30
2022-09-07T22:08:19.164Z,2.40
2022-09-07T22:10:46.425Z,2.30
2022-09-07T22:13:13.469Z,2.42
2022-09-07T22:15:41.378Z,2.60
2022-09-07T22:18:11.497Z,2.65
2022-09-07T22:20:38.376Z,2.30
2022-09-07T22:23:05.257Z,2.53
2022-09-07T22:25:32.751Z,2.80
2022-09-07T22:27:59.302Z,2.80
2022-09-07T22:30:26.462Z,2.67
2022-09-07T22:32:53.245Z,2.45
2022-09-07T22:35:20.473Z,2.63
2022-09-07T22:37:47.146Z,2.78
2022-09-07T22:40:14.972Z,2.80
2022-09-07T22:42:41.827Z,3.20
2022-09-07T22:45:09.301Z,2.80
2022-09-07T22:47:35.804Z,2.70
2022-09-07T22:50:02.367Z,2.70
2022-09-07T22:52:29.079Z,2.72
2022-09-07T22:54:55.613Z,2.53
2022-09-07T22:57:22.126Z,2.70
2022-09-07T22:59:48.641Z,2.50
2022-09-07T23:02:15.167Z,2.35
2022-09-07T23:04:41.774Z,2.40
2022-09-07T23:07:08.406Z,2.65
2022-09-07T23:09:34.986Z,2.63
2022-09-07T23:12:01.679Z,3.00
2022-09-07T23:14:28.229Z,2.92
2022-09-07T23:16:54.870Z,3.13
2022-09-07T23:19:21.530Z,3.03
2022-09-07T23:21:48.230Z,2.90
2022-09-07T23:24:17.139Z,2.92
2022-09-07T23:26:44.223Z,3.15
2022-09-07T23:29:12.924Z,2.83
2022-09-07T23:31:40.164Z,2.83
2022-09-07T23:34:07.661Z,2.80
2022-09-07T23:36:34.561Z,2.50
2022-09-07T23:39:01.327Z,2.70
2022-09-07T23:41:28.708Z,2.90
2022-09-07T23:43:55.592Z,2.72
2022-09-07T23:46:22.659Z,2.80
2022-09-07T23:48:49.445Z,2.80
2022-09-07T23:51:21.278Z,2.33
2022-09-07T23:53:49.758Z,2.70
2022-09-07T23:56:16.276Z,2.47
2022-09-07T23:58:43.006Z,2.45
